Time;durP1;ratioP1;P1;durP2;ratioP2;P2;SDS_P1;SDS_P2;PMS_P1;PMS_P2;Temp;Humidity;BMP_temperature;BMP_pressure;BME280_temperature;BME280_humidity;BME280_pressure;Samples;Min_cycle;Max_cycle;Signal;HPM_P1;HPM_P2
2023/06/05 00:00:39;;;;;;;2.00;1.70;;;;;;;12.75;72.56;100777.17;89569;1270;1037354;-58
2023/06/05 00:05:03;;;;;;;4.30;2.40;;;;;;;12.68;72.86;100782.47;89594;1267;1036361;-58
2023/06/05 00:09:08;;;;;;;4.40;2.10;;;;;;;12.68;73.31;100777.02;89714;1266;1035305;-58
2023/06/05 00:13:11;;;;;;;2.80;1.60;;;;;;;12.74;73.59;100778.80;89655;1269;1036146;-58
2023/06/05 00:17:14;;;;;;;3.20;2.10;;;;;;;12.76;73.87;100774.74;89648;1269;1036025;-58
2023/06/05 00:21:17;;;;;;;3.90;1.60;;;;;;;12.70;74.36;100775.20;89704;1269;1036817;-57
2023/06/05 00:25:20;;;;;;;4.40;2.00;;;;;;;12.67;74.39;100776.16;89663;1267;1036848;-58
2023/06/05 00:29:23;;;;;;;3.40;2.10;;;;;;;12.63;74.36;100771.38;89696;1269;1036469;-58
2023/06/05 00:33:28;;;;;;;4.20;2.60;;;;;;;12.62;74.79;100769.69;89753;1269;1036473;-58
2023/06/05 00:43:18;;;;;;;7.90;2.70;;;;;;;12.52;74.26;100768.69;89740;1267;1036328;-58
2023/06/05 00:47:22;;;;;;;11.90;2.90;;;;;;;12.34;74.13;100768.58;89654;1269;1036504;-58
2023/06/05 00:51:40;;;;;;;2.70;2.20;;;;;;;12.22;74.53;100764.03;89726;1269;1035198;-58
2023/06/05 00:55:42;;;;;;;5.90;2.10;;;;;;;12.14;74.32;100757.91;89787;1267;1036030;-58
2023/06/05 00:59:46;;;;;;;2.20;1.50;;;;;;;12.07;74.77;100754.52;89766;1266;1036503;-58
2023/06/05 01:03:50;;;;;;;3.70;2.10;;;;;;;11.89;74.99;100750.77;89675;1269;1036053;-57
2023/06/05 01:07:54;;;;;;;3.40;2.50;;;;;;;11.85;75.00;100751.60;89771;1269;1035792;-58
2023/06/05 01:12:10;;;;;;;5.40;2.20;;;;;;;11.59;76.46;100750.33;89671;1266;1036084;-58
2023/06/05 01:16:15;;;;;;;5.30;2.10;;;;;;;11.26;78.10;100752.11;89736;1269;1036333;-58
2023/06/05 01:20:21;;;;;;;4.10;2.80;;;;;;;11.10;77.27;100748.78;89718;1269;1035595;-58
2023/06/05 01:24:27;;;;;;;4.30;2.30;;;;;;;11.16;77.19;100747.95;89604;1269;1036562;-57
2023/06/05 01:28:33;;;;;;;5.70;2.70;;;;;;;11.24;76.90;100747.86;89587;1269;1036773;-58
2023/06/05 01:33:17;;;;;;;3.90;2.60;;;;;;;11.29;77.26;100746.41;89573;1269;1035966;-57
2023/06/05 01:37:27;;;;;;;11.70;2.70;;;;;;;11.27;78.25;100746.70;89714;1270;1036493;-57
2023/06/05 01:41:30;;;;;;;4.60;3.10;;;;;;;11.14;79.23;100741.30;89662;1269;1036242;-58
2023/06/05 01:45:40;;;;;;;6.90;2.90;;;;;;;11.08;78.71;100739.82;89742;1269;1035783;-58
2023/06/05 01:49:44;;;;;;;5.20;3.00;;;;;;;11.01;79.03;100741.41;89717;1269;1036027;-58
2023/06/05 01:53:48;;;;;;;3.60;1.70;;;;;;;10.87;79.72;100736.81;89597;1269;1036692;-57
2023/06/05 01:57:56;;;;;;;8.40;3.80;;;;;;;10.81;79.40;100733.73;89707;1267;1036064;-58
2023/06/05 02:01:58;;;;;;;7.20;2.70;;;;;;;10.77;79.56;100739.53;89662;1266;1036339;-57
2023/06/05 02:06:04;;;;;;;2.30;2.10;;;;;;;10.77;80.07;100741.11;89663;1269;1036094;-57
2023/06/05 02:10:08;;;;;;;4.10;2.70;;;;;;;10.80;79.28;100740.71;89636;1267;1036950;-57
2023/06/05 02:14:15;;;;;;;5.00;2.80;;;;;;;10.79;78.84;100738.84;89694;1269;1035975;-57
2023/06/05 02:18:24;;;;;;;4.50;2.90;;;;;;;10.78;78.75;100739.64;89731;1269;1036537;-57
2023/06/05 02:22:44;;;;;;;5.90;2.50;;;;;;;10.76;78.47;100738.88;89733;1266;1036670;-57
2023/06/05 02:26:47;;;;;;;4.60;3.00;;;;;;;10.74;78.41;100735.47;89620;1269;1036575;-57
2023/06/05 02:30:50;;;;;;;3.90;2.30;;;;;;;10.70;77.92;100729.41;89545;1266;1035525;-57
2023/06/05 02:34:56;;;;;;;4.70;2.20;;;;;;;10.55;78.57;100728.92;89709;1270;1035580;-57
2023/06/05 02:39:04;;;;;;;3.70;2.70;;;;;;;10.52;78.97;100722.55;89641;1271;1035591;-57
2023/06/05 02:44:00;;;;;;;2.70;1.90;;;;;;;10.56;78.31;100724.00;89558;1270;1036158;-57
2023/06/05 02:48:05;;;;;;;5.50;2.10;;;;;;;10.59;78.28;100730.00;89665;1270;1036566;-57
2023/06/05 02:52:17;;;;;;;2.60;2.00;;;;;;;10.67;78.19;100729.58;89620;1266;1036420;-57
2023/06/05 02:56:21;;;;;;;4.40;2.30;;;;;;;10.79;77.72;100731.74;89679;1270;1036613;-57
2023/06/05 03:00:26;;;;;;;;;;;;;;;10.81;77.65;100732.50;89699;1269;1036813;-57
2023/06/05 03:04:30;;;;;;;3.20;2.20;;;;;;;10.84;77.46;100733.16;89718;1266;1036269;-57
2023/06/05 03:08:41;;;;;;;6.90;2.10;;;;;;;10.82;77.71;100730.98;89637;1266;1035831;-57
2023/06/05 03:12:44;;;;;;;4.30;1.90;;;;;;;10.74;78.36;100732.67;89615;1267;1035961;-58
2023/06/05 03:16:54;;;;;;;3.70;2.20;;;;;;;10.82;79.11;100739.88;89625;1270;1036239;-57
2023/06/05 03:20:57;;;;;;;3.60;2.70;;;;;;;10.90;79.20;100739.06;89666;1266;1036748;-57
2023/06/05 03:25:00;;;;;;;4.10;2.50;;;;;;;10.91;79.52;100736.73;89618;1267;1036429;-57
2023/06/05 03:29:05;;;;;;;3.90;2.00;;;;;;;10.83;80.41;100739.05;89655;1267;1035570;-57
2023/06/05 03:33:09;;;;;;;2.90;2.20;;;;;;;10.76;82.36;100740.46;89589;1267;1036345;-57
2023/06/05 03:37:14;;;;;;;3.60;1.80;;;;;;;11.02;82.17;100738.83;89677;1267;1036139;-57
2023/06/05 03:41:17;;;;;;;6.30;2.50;;;;;;;10.97;81.31;100742.23;89536;1266;1036017;-57
2023/06/05 03:45:22;;;;;;;9.90;2.80;;;;;;;10.87;82.67;100735.59;89545;1266;1036380;-57
2023/06/05 03:49:28;;;;;;;13.90;4.90;;;;;;;10.82;84.22;100730.59;89540;1270;1036415;-58
2023/06/05 03:53:32;;;;;;;36.40;6.30;;;;;;;10.92;85.42;100732.01;89583;1270;1035334;-57
2023/06/05 03:57:37;;;;;;;10.00;3.40;;;;;;;11.07;85.68;100736.77;89588;1270;1036113;-56
2023/06/05 04:01:41;;;;;;;40.40;9.50;;;;;;;11.23;86.13;100740.48;89592;1269;1036763;-56
2023/06/05 04:05:43;;;;;;;17.90;5.20;;;;;;;11.47;85.97;100738.46;89604;1269;1036323;-57
2023/06/05 04:09:47;;;;;;;6.00;3.40;;;;;;;11.66;85.62;100742.68;89566;1267;1036475;-57
2023/06/05 04:13:53;;;;;;;9.00;4.40;;;;;;;11.81;86.13;100741.67;89523;1267;1036566;-57
2023/06/05 04:17:57;;;;;;;4.00;3.00;;;;;;;12.10;87.34;100741.73;89397;1270;1036346;-57
2023/06/05 04:22:00;;;;;;;6.70;3.50;;;;;;;12.65;87.41;100740.40;89567;1270;1035750;-57
2023/06/05 04:26:07;;;;;;;4.70;3.50;;;;;;;13.67;87.50;100740.36;89519;1270;1036524;-57
2023/06/05 04:30:14;;;;;;;112.80;20.80;;;;;;;14.83;88.16;100743.05;89644;1270;1036215;-58
2023/06/05 04:34:18;;;;;;;13.50;5.70;;;;;;;15.91;78.22;100740.63;89601;1269;1034911;-58
2023/06/05 04:38:22;;;;;;;3.00;2.70;;;;;;;16.59;71.46;100740.80;89697;1270;1036870;-58
2023/06/05 04:42:37;;;;;;;5.80;4.10;;;;;;;16.94;70.47;100738.91;89603;1270;1035993;-58
2023/06/05 04:46:42;;;;;;;7.10;4.10;;;;;;;17.34;69.12;100735.91;89589;1270;1035175;-58
2023/06/05 04:50:48;;;;;;;8.40;3.90;;;;;;;18.00;69.32;100735.04;89661;1270;1036508;-58
2023/06/05 04:54:54;;;;;;;9.90;3.70;;;;;;;18.85;67.57;100728.44;89659;1270;1036184;-57
2023/06/05 04:58:57;;;;;;;;;;;;;;;19.46;64.00;100723.52;89687;1266;1034972;-58
2023/06/05 05:03:05;;;;;;;8.50;2.90;;;;;;;19.97;61.74;100727.70;89689;1270;1036107;-58
2023/06/05 05:07:14;;;;;;;8.00;3.60;;;;;;;20.45;60.48;100734.04;89640;1267;1036244;-58
2023/06/05 05:11:19;;;;;;;9.50;4.40;;;;;;;20.99;58.27;100727.41;89550;1270;1036502;-58
2023/06/05 05:15:24;;;;;;;5.90;3.30;;;;;;;21.92;55.36;100724.87;89602;1267;1036065;-58
2023/06/05 05:19:28;;;;;;;6.00;3.60;;;;;;;22.85;52.41;100721.39;89582;1267;1036410;-59
2023/06/05 05:23:34;;;;;;;5.80;3.20;;;;;;;23.35;51.15;100718.25;89635;1267;1035217;-59
2023/06/05 05:27:37;;;;;;;7.50;3.40;;;;;;;23.93;51.92;100719.20;89628;1270;1036595;-59
2023/06/05 05:31:40;;;;;;;5.90;3.50;;;;;;;23.96;52.84;100721.90;89608;1266;1035966;-58
2023/06/05 05:35:44;;;;;;;3.40;3.10;;;;;;;23.95;53.19;100719.86;89710;1270;1036031;-59
2023/06/05 05:39:48;;;;;;;11.40;3.20;;;;;;;24.04;52.12;100717.64;89586;1270;1036783;-59
2023/06/05 05:43:51;;;;;;;4.70;3.10;;;;;;;24.32;47.98;100721.52;89671;1267;1035322;-59
2023/06/05 05:47:54;;;;;;;3.60;2.90;;;;;;;24.71;48.14;100725.92;89639;1271;1036611;-59
2023/06/05 05:51:59;;;;;;;3.00;2.70;;;;;;;24.79;47.69;100721.38;89686;1270;1036649;-59
2023/06/05 05:56:03;;;;;;;;;;;;;;;24.76;48.13;100722.73;89650;1267;1036729;-59
2023/06/05 06:00:12;;;;;;;6.90;2.90;;;;;;;24.55;48.30;100725.73;89697;1266;1034758;-83
2023/06/05 06:04:19;;;;;;;4.60;2.90;;;;;;;23.58;51.32;100725.52;89446;1267;1036004;-85
2023/06/05 06:08:23;;;;;;;3.50;3.20;;;;;;;23.60;50.68;100725.61;89264;1267;1036777;-85
2023/06/05 06:12:27;;;;;;;3.90;3.30;;;;;;;23.72;50.55;100726.13;89285;1264;1035913;-85
2023/06/05 06:16:31;;;;;;;5.60;3.20;;;;;;;23.33;52.30;100724.73;89318;1264;1036234;-85
2023/06/05 06:20:35;;;;;;;3.10;2.80;;;;;;;23.08;51.82;100726.20;89516;1264;1036727;-84
2023/06/05 06:24:39;;;;;;;4.50;2.80;;;;;;;22.88;50.98;100727.14;89567;1267;1036200;-85
2023/06/05 06:28:43;;;;;;;5.00;3.20;;;;;;;22.63;52.77;100733.94;89268;1262;1036048;-86
2023/06/05 06:32:47;;;;;;;7.10;3.00;;;;;;;22.66;53.11;100740.75;89157;1264;1036386;-83
2023/06/05 06:36:50;;;;;;;8.80;8.00;;;;;;;22.89;53.96;100744.84;89429;1264;1036629;-85
2023/06/05 06:40:54;;;;;;;6.30;5.00;;;;;;;23.15;53.77;100739.82;89270;1266;1037202;-85
2023/06/05 06:44:58;;;;;;;6.10;3.90;;;;;;;23.57;52.63;100736.58;89359;1265;1036325;-84
2023/06/05 06:49:03;;;;;;;4.80;3.00;;;;;;;24.08;51.81;100741.23;89327;1265;1036013;-84
2023/06/05 06:53:06;;;;;;;7.00;3.30;;;;;;;24.32;50.59;100742.56;89566;1266;1035922;-85
2023/06/05 06:57:10;;;;;;;4.40;3.20;;;;;;;24.22;51.85;100742.12;89560;1267;1036307;-85
2023/06/05 07:01:15;;;;;;;6.00;3.30;;;;;;;24.37;52.67;100740.73;89447;1267;1036530;-85
2023/06/05 07:05:19;;;;;;;8.30;4.00;;;;;;;24.76;52.17;100739.52;86517;1265;6926506;-91
2023/06/05 07:09:23;;;;;;;8.00;3.10;;;;;;;25.14;49.98;100736.20;89069;1262;1057571;-90
2023/06/05 07:13:27;;;;;;;3.80;3.50;;;;;;;25.40;49.94;100738.54;88737;1263;1057607;-90
2023/06/05 07:17:30;;;;;;;3.90;2.50;;;;;;;25.64;48.78;100735.55;88768;1263;1058627;-91
2023/06/05 07:21:37;;;;;;;9.00;3.90;;;;;;;25.54;48.37;100739.29;88549;1265;1057451;-90
2023/06/05 07:25:41;;;;;;;6.30;3.60;;;;;;;25.03;50.46;100743.75;88673;1265;1060282;-90
2023/06/05 07:29:45;;;;;;;5.80;2.60;;;;;;;25.16;49.07;100741.60;88564;1262;1059859;-90
2023/06/05 07:33:53;;;;;;;4.80;2.60;;;;;;;25.21;46.88;100739.38;88625;1262;1057448;-90
2023/06/05 07:37:56;;;;;;;5.50;3.00;;;;;;;25.26;47.23;100739.56;88613;1262;1060097;-90
2023/06/05 07:42:00;;;;;;;6.10;2.70;;;;;;;25.28;48.18;100740.03;88667;1267;1058062;-90
2023/06/05 07:46:04;;;;;;;3.90;2.50;;;;;;;25.12;48.91;100739.25;88641;1265;1057256;-91
2023/06/05 07:50:09;;;;;;;6.50;2.40;;;;;;;25.24;48.83;100735.42;88709;1266;1058361;-90
2023/06/05 07:54:15;;;;;;;4.20;2.90;;;;;;;25.56;48.11;100728.66;88682;1262;1060601;-90
2023/06/05 07:58:19;;;;;;;5.00;3.10;;;;;;;25.69;47.60;100726.32;88635;1262;1057827;-91
2023/06/05 08:02:23;;;;;;;6.10;2.20;;;;;;;25.89;48.37;100728.36;88616;1262;1057916;-91
2023/06/05 08:06:29;;;;;;;4.80;2.60;;;;;;;25.95;47.96;100725.10;88946;1262;1058741;-84
2023/06/05 08:10:32;;;;;;;3.90;2.80;;;;;;;26.02;47.27;100726.66;89461;1266;1061837;-84
2023/06/05 08:14:37;;;;;;;10.90;7.30;;;;;;;26.09;47.20;100724.95;89495;1263;1060462;-85
2023/06/05 08:18:42;;;;;;;11.80;8.70;;;;;;;25.94;47.60;100725.73;89519;1263;1057371;-85
2023/06/05 08:22:45;;;;;;;7.10;2.90;;;;;;;25.96;46.48;100724.73;89459;1264;1058115;-85
2023/06/05 08:26:49;;;;;;;6.50;4.60;;;;;;;26.08;46.53;100723.06;89467;1263;1057776;-85
2023/06/05 08:30:54;;;;;;;6.50;3.40;;;;;;;26.25;46.30;100720.35;89458;1266;1056760;-85
2023/06/05 08:34:57;;;;;;;7.90;4.30;;;;;;;26.40;45.45;100716.22;89433;1265;1057380;-85
2023/06/05 08:39:02;;;;;;;15.30;11.50;;;;;;;26.51;44.68;100716.85;89399;1263;1057818;-85
2023/06/05 08:43:05;;;;;;;4.20;2.40;;;;;;;26.57;44.41;100712.70;89378;1265;1058386;-85
2023/06/05 08:47:12;;;;;;;5.10;2.30;;;;;;;26.70;44.83;100712.17;89482;1268;1057358;-85
2023/06/05 08:51:17;;;;;;;4.30;1.70;;;;;;;26.84;44.04;100709.98;89598;1264;1058729;-85
2023/06/05 08:55:22;;;;;;;4.90;2.10;;;;;;;26.85;42.97;100712.39;89247;1266;1057043;-86
2023/06/05 08:59:26;;;;;;;4.90;2.30;;;;;;;26.88;42.88;100711.69;89434;1263;1059378;-84
2023/06/05 09:03:32;;;;;;;3.00;1.60;;;;;;;26.81;41.02;100705.11;89664;1264;1057645;-85
2023/06/05 09:07:37;;;;;;;5.60;1.60;;;;;;;26.59;41.33;100707.89;89345;1263;1058412;-85
2023/06/05 09:16:10;;;;;;;2.40;1.90;;;;;;;26.40;42.05;100707.27;88507;1262;1058034;-92
2023/06/05 09:20:50;;;;;;;11.60;1.70;;;;;;;26.42;41.10;100701.82;89266;1261;1057052;-92
2023/06/05 09:25:14;;;;;;;3.80;1.40;;;;;;;26.23;41.98;100698.25;89915;1266;1057664;-63
2023/06/05 09:29:40;;;;;;;2.80;1.20;;;;;;;26.11;40.87;100694.65;89883;1264;1058276;-60
2023/06/05 09:33:57;;;;;;;5.10;1.90;;;;;;;26.11;41.31;100695.63;89724;1262;1057367;-62
2023/06/05 09:38:00;;;;;;;4.90;1.80;;;;;;;26.19;41.61;100691.44;89718;1266;1057735;-59
2023/06/05 09:42:06;;;;;;;2.40;1.50;;;;;;;26.18;41.30;100687.33;89764;1264;1060290;-62
2023/06/05 09:46:14;;;;;;;5.40;2.30;;;;;;;26.27;41.27;100681.54;89564;1266;1057332;-63
2023/06/05 09:50:27;;;;;;;15.60;2.50;;;;;;;26.27;41.37;100682.51;89702;1264;1057088;-61
2023/06/05 09:55:00;;;;;;;3.70;1.10;;;;;;;26.29;39.01;100681.48;89671;1263;1057510;-61
2023/06/05 09:59:13;;;;;;;2.70;1.30;;;;;;;26.33;40.49;100681.03;89735;1263;1057391;-62
2023/06/05 10:03:22;;;;;;;5.40;1.00;;;;;;;26.35;41.01;100676.73;89657;1263;1056741;-62
2023/06/05 10:07:26;;;;;;;7.50;2.40;;;;;;;26.38;42.23;100675.08;89603;1263;1056740;-61
2023/06/05 10:11:31;;;;;;;2.00;1.60;;;;;;;26.40;41.07;100664.83;89473;1264;1058356;-61
2023/06/05 10:15:38;;;;;;;2.70;1.50;;;;;;;26.47;40.31;100661.63;89759;1263;1057680;-60
2023/06/05 10:19:47;;;;;;;5.50;1.50;;;;;;;26.64;40.10;100650.61;89784;1264;1057104;-62
2023/06/05 10:24:12;;;;;;;4.30;1.70;;;;;;;26.76;40.20;100649.27;89912;1264;1057799;-66
2023/06/05 10:28:19;;;;;;;3.10;1.50;;;;;;;26.85;39.58;100646.56;89983;1263;1057536;-65
2023/06/05 10:32:28;;;;;;;4.70;1.20;;;;;;;26.86;39.64;100638.66;89973;1262;1058069;-61
2023/06/05 10:36:40;;;;;;;2.50;1.40;;;;;;;26.82;38.89;100643.14;90033;1262;1057776;-61
2023/06/05 10:41:02;;;;;;;2.40;1.20;;;;;;;26.56;39.06;100638.63;89852;1264;1057410;-62
2023/06/05 10:45:06;;;;;;;5.40;1.40;;;;;;;26.52;40.00;100639.05;89768;1263;1057606;-60
2023/06/05 10:49:11;;;;;;;3.10;1.20;;;;;;;26.65;39.65;100632.80;89752;1263;1057542;-61
2023/06/05 10:53:51;;;;;;;3.90;1.40;;;;;;;26.74;38.56;100630.11;89809;1265;1057153;-62
2023/06/05 10:58:00;;;;;;;3.60;1.70;;;;;;;26.81;39.50;100625.55;89745;1262;1057353;-61
2023/06/05 11:02:08;;;;;;;3.10;1.30;;;;;;;26.90;38.97;100628.67;89805;1265;1057179;-62
2023/06/05 11:06:14;;;;;;;1.70;1.50;;;;;;;26.94;37.69;100621.59;89695;1263;1057666;-65
2023/06/05 11:10:21;;;;;;;4.40;1.80;;;;;;;27.00;37.69;100618.38;89754;1263;1059058;-63
2023/06/05 11:14:43;;;;;;;10.50;3.20;;;;;;;26.99;38.51;100619.89;89770;1265;1057394;-62
2023/06/05 11:18:48;;;;;;;4.60;1.40;;;;;;;27.04;39.79;100613.53;89852;1264;1057929;-61
2023/06/05 11:22:53;;;;;;;3.30;1.30;;;;;;;26.98;39.30;100613.52;89769;1263;1057593;-62
2023/06/05 11:26:58;;;;;;;2.20;1.50;;;;;;;27.10;38.68;100612.45;89765;1264;1057121;-62
2023/06/05 11:31:01;;;;;;;2.90;1.20;;;;;;;27.10;37.98;100609.61;89530;1263;1057580;-65
2023/06/05 11:35:05;;;;;;;4.80;1.90;;;;;;;27.10;37.72;100607.53;89717;1263;1057707;-66
2023/06/05 11:39:13;;;;;;;3.90;1.40;;;;;;;27.20;39.60;100604.98;89852;1264;1057372;-62
2023/06/05 11:43:17;;;;;;;3.80;2.20;;;;;;;27.17;39.47;100605.44;89868;1263;1057816;-64
2023/06/05 11:47:30;;;;;;;2.60;1.40;;;;;;;27.24;37.72;100601.66;89992;1264;1057493;-63
2023/06/05 11:51:56;;;;;;;3.70;1.50;;;;;;;27.16;38.62;100599.29;89988;1263;1057541;-66
2023/06/05 12:00:11;;;;;;;3.70;1.40;;;;;;;27.40;39.67;100591.16;89842;1266;1057538;-61
2023/06/05 12:04:14;;;;;;;4.40;1.60;;;;;;;27.30;39.82;100592.59;89801;1267;1057949;-63
2023/06/05 12:08:28;;;;;;;15.70;3.90;;;;;;;27.38;39.93;100589.04;89845;1266;1057593;-62
2023/06/05 12:12:33;;;;;;;2.40;1.40;;;;;;;27.48;38.25;100582.83;89794;1263;1057721;-62
2023/06/05 12:16:39;;;;;;;2.80;1.40;;;;;;;27.57;38.11;100581.94;89753;1264;1057446;-61
2023/06/05 12:20:45;;;;;;;3.00;2.60;;;;;;;27.63;39.40;100578.09;89667;1264;1058473;-63
2023/06/05 12:24:48;;;;;;;2.80;1.30;;;;;;;27.57;40.00;100575.12;89813;1264;1057542;-62
2023/06/05 12:29:06;;;;;;;3.40;1.80;;;;;;;27.68;38.96;100575.83;89847;1262;1057792;-61
2023/06/05 12:33:10;;;;;;;3.00;1.40;;;;;;;27.84;40.30;100576.34;89776;1262;1057361;-60
2023/06/05 12:37:40;;;;;;;2.60;1.80;;;;;;;27.93;39.11;100568.52;89922;1262;1057696;-65
2023/06/05 12:41:44;;;;;;;3.00;1.70;;;;;;;28.00;39.06;100562.98;89876;1265;1056333;-61
2023/06/05 12:45:50;;;;;;;2.10;1.40;;;;;;;28.00;37.35;100560.13;89891;1262;1058000;-61
2023/06/05 12:49:56;;;;;;;3.20;1.40;;;;;;;27.99;39.57;100557.64;89903;1262;1058102;-60
2023/06/05 12:53:59;;;;;;;21.60;2.90;;;;;;;28.14;40.06;100549.31;89918;1264;1057404;-61
2023/06/05 12:58:05;;;;;;;6.10;1.80;;;;;;;28.36;40.35;100549.61;89607;1265;1057461;-87
2023/06/05 13:02:08;;;;;;;12.40;1.70;;;;;;;28.34;37.24;100545.86;89912;1263;1057196;-89
2023/06/05 13:06:12;;;;;;;2.40;1.50;;;;;;;28.30;36.71;100542.81;89709;1264;1059896;-89
2023/06/05 13:10:15;;;;;;;2.40;1.60;;;;;;;28.34;36.60;100540.18;89629;1264;1057792;-90
2023/06/05 13:14:19;;;;;;;3.70;1.70;;;;;;;28.35;36.58;100532.88;89663;1266;1060585;-89
2023/06/05 13:18:23;;;;;;;2.60;1.40;;;;;;;28.15;36.52;100529.26;89531;1266;1057874;-90
2023/06/05 13:22:26;;;;;;;2.10;1.10;;;;;;;28.16;36.67;100525.34;89587;1263;1057616;-89
2023/06/05 13:26:31;;;;;;;2.40;1.10;;;;;;;28.23;36.56;100524.93;89719;1264;1060078;-89
2023/06/05 13:30:36;;;;;;;4.60;1.40;;;;;;;28.30;37.27;100522.58;89791;1266;1058038;-90
2023/06/05 13:34:41;;;;;;;2.30;1.50;;;;;;;28.25;37.32;100524.27;89585;1266;1058220;-86
2023/06/05 13:43:18;;;;;;;2.50;1.50;;;;;;;28.42;37.36;100513.21;89511;1265;1057913;-90
2023/06/05 13:47:21;;;;;;;2.00;1.10;;;;;;;28.67;37.26;100507.60;89912;1265;1057253;-90
2023/06/05 13:51:25;;;;;;;4.40;1.70;;;;;;;28.74;36.19;100500.05;89993;1265;1057916;-92
2023/06/05 13:55:31;;;;;;;6.40;1.50;;;;;;;28.83;36.15;100493.52;89691;1267;1056287;-90
2023/06/05 13:59:34;;;;;;;2.30;1.20;;;;;;;29.01;36.76;100490.38;89646;1267;1057718;-89
2023/06/05 14:03:38;;;;;;;4.80;1.10;;;;;;;29.02;36.94;100485.56;89430;1265;1057575;-89
2023/06/05 14:07:42;;;;;;;5.90;1.90;;;;;;;28.91;40.24;100484.86;89479;1265;1057917;-88
2023/06/05 14:11:52;;;;;;;5.70;1.70;;;;;;;28.82;38.15;100479.65;89307;1265;1058290;-87
2023/06/05 14:15:55;;;;;;;9.70;1.90;;;;;;;28.70;38.12;100476.86;89512;1265;1057767;-89
2023/06/05 14:19:59;;;;;;;2.60;1.30;;;;;;;28.56;38.05;100476.25;89256;1267;1057478;-90
2023/06/05 14:24:05;;;;;;;4.60;1.40;;;;;;;28.55;42.38;100476.06;89345;1265;1057430;-88
2023/06/05 14:28:10;;;;;;;2.20;1.80;;;;;;;28.61;42.56;100471.14;89471;1265;1058123;-86
2023/06/05 14:32:14;;;;;;;;;;;;;;;28.85;38.33;100467.21;89346;1265;1060623;-90
2023/06/05 14:40:50;;;;;;;4.50;2.20;;;;;;;29.30;41.13;100459.77;70702;1602;1057313;-60
2023/06/05 14:44:54;;;;;;;2.80;1.00;;;;;;;29.33;37.63;100457.98;89814;1262;1057935;-90
2023/06/05 14:48:57;;;;;;;2.90;1.60;;;;;;;29.20;38.48;100457.43;89940;1265;1057175;-88
2023/06/05 14:57:25;;;;;;;4.30;1.70;;;;;;;29.16;38.76;100454.16;89746;1265;1057710;-92
2023/06/05 15:01:28;;;;;;;4.00;1.50;;;;;;;29.29;36.45;100453.40;90097;1265;1057866;-91
2023/06/05 15:05:34;;;;;;;4.10;1.60;;;;;;;29.48;37.84;100453.65;90038;1264;1057319;-91
2023/06/05 15:09:38;;;;;;;55.00;8.20;;;;;;;29.36;38.61;100451.34;90024;1265;1058460;-93
2023/06/05 15:13:42;;;;;;;3.50;1.80;;;;;;;29.30;38.53;100451.67;89959;1264;1056721;-92
2023/06/05 15:17:45;;;;;;;3.90;1.90;;;;;;;29.21;39.83;100444.40;90004;1268;1060792;-88
2023/06/05 15:21:58;;;;;;;6.40;1.20;;;;;;;29.45;38.90;100445.64;90045;1265;1058616;-89
2023/06/05 15:26:02;;;;;;;4.70;2.10;;;;;;;29.55;37.88;100443.08;90036;1265;1058020;-88
2023/06/05 15:34:48;;;;;;;3.70;1.50;;;;;;;29.76;36.15;100433.71;90010;1267;1057586;-87
2023/06/05 15:43:28;;;;;;;2.00;1.30;;;;;;;30.00;39.78;100425.95;71026;1593;1057413;-61
2023/06/05 15:47:32;;;;;;;2.90;2.20;;;;;;;29.94;37.52;100422.30;90107;1267;1057157;-86
2023/06/05 15:51:35;;;;;;;1.80;1.60;;;;;;;29.63;37.37;100425.02;90064;1267;1057089;-92
2023/06/05 15:55:40;;;;;;;6.80;2.60;;;;;;;29.42;38.39;100419.50;90066;1265;1057469;-90
2023/06/05 15:59:45;;;;;;;4.70;1.50;;;;;;;28.85;40.37;100419.53;90045;1266;1060632;-89
2023/06/05 16:03:48;;;;;;;3.60;1.90;;;;;;;28.73;39.57;100415.67;90057;1265;1060792;-90
2023/06/05 16:07:52;;;;;;;27.40;3.10;;;;;;;28.78;38.62;100414.84;90030;1266;1060270;-89
2023/06/05 16:11:55;;;;;;;3.70;1.90;;;;;;;28.89;37.95;100411.59;90084;1265;1057652;-90
2023/06/05 16:16:01;;;;;;;4.60;2.00;;;;;;;28.97;38.35;100411.16;89960;1267;1057222;-92
2023/06/05 16:20:07;;;;;;;9.00;1.70;;;;;;;28.86;42.33;100409.80;89957;1267;1057723;-88
2023/06/05 16:24:11;;;;;;;2.80;1.20;;;;;;;28.60;41.80;100406.39;89946;1268;1057955;-88
2023/06/05 16:28:15;;;;;;;2.30;1.40;;;;;;;28.45;42.89;100402.11;90069;1265;1056740;-93
2023/06/05 16:41:20;;;;;;;12.60;5.00;;;;;;;28.16;48.80;100398.00;88858;1264;1059823;-91
2023/06/05 16:45:28;;;;;;;5.80;4.10;;;;;;;28.04;48.45;100395.48;89976;1264;1057992;-88
2023/06/05 16:49:32;;;;;;;3.00;2.70;;;;;;;27.84;48.77;100396.73;90049;1262;1056358;-92
2023/06/05 16:53:35;;;;;;;4.10;2.00;;;;;;;27.79;48.09;100398.98;90016;1264;1057605;-89
2023/06/05 16:57:39;;;;;;;4.50;2.20;;;;;;;27.83;47.91;100395.95;90031;1267;1059900;-87
2023/06/05 17:01:43;;;;;;;5.80;2.00;;;;;;;27.93;47.05;100393.51;90031;1263;1056278;-88
2023/06/05 17:05:54;;;;;;;3.00;2.10;;;;;;;28.01;49.93;100394.98;90066;1267;1057023;-92
2023/06/05 17:09:59;;;;;;;;;;;;;;;28.17;51.72;100396.92;90001;1267;1060485;-92
2023/06/05 17:14:05;;;;;;;116.10;15.40;;;;;;;28.24;51.66;100402.16;90079;1265;1058381;-90
2023/06/05 17:18:09;;;;;;;26.10;4.60;;;;;;;28.13;52.16;100400.53;90046;1267;1060655;-91
2023/06/05 17:22:15;;;;;;;17.80;3.80;;;;;;;27.68;52.92;100400.41;90012;1264;1060308;-92
2023/06/05 17:26:19;;;;;;;5.50;2.60;;;;;;;27.11;57.18;100405.17;90034;1264;1057344;-87
2023/06/05 17:30:22;;;;;;;10.00;3.10;;;;;;;26.68;56.13;100403.95;89804;1265;1058445;-88
2023/06/05 17:34:26;;;;;;;9.90;2.90;;;;;;;26.46;52.62;100402.40;89854;1264;1057727;-90
2023/06/05 17:38:29;;;;;;;6.70;2.40;;;;;;;26.28;54.69;100398.14;89852;1267;1058097;-85
2023/06/05 17:42:32;;;;;;;418.70;73.10;;;;;;;26.23;58.53;100400.23;89767;1265;1060560;-90
2023/06/05 17:46:36;;;;;;;135.10;22.90;;;;;;;26.26;60.49;100398.06;89634;1264;1057288;-86
2023/06/05 17:50:39;;;;;;;14.10;3.60;;;;;;;26.27;60.08;100393.73;89671;1264;1057464;-89
2023/06/05 17:54:43;;;;;;;5.30;2.00;;;;;;;26.09;56.69;100392.77;89970;1265;1057053;-88
2023/06/05 17:58:48;;;;;;;2.30;1.70;;;;;;;25.91;53.32;100386.20;89895;1268;1058875;-88
2023/06/05 18:02:52;;;;;;;2.40;1.80;;;;;;;25.74;54.44;100386.13;89897;1265;1056185;-91
2023/06/05 18:06:57;;;;;;;9.90;2.60;;;;;;;25.54;58.59;100390.44;90008;1264;1057432;-92
2023/06/05 18:11:01;;;;;;;2.90;2.00;;;;;;;25.42;63.58;100387.96;90021;1267;1057395;-87
2023/06/05 18:15:05;;;;;;;12.50;2.90;;;;;;;25.31;62.88;100391.35;90050;1264;1057610;-92
2023/06/05 18:19:09;;;;;;;3.30;1.90;;;;;;;25.15;62.95;100393.15;90048;1265;1057827;-88
2023/06/05 18:23:12;;;;;;;3.20;1.80;;;;;;;24.97;60.59;100389.91;90016;1267;1057853;-91
2023/06/05 18:27:16;;;;;;;3.50;2.30;;;;;;;24.83;58.69;100392.35;89993;1265;1057299;-87
2023/06/05 18:31:25;;;;;;;5.30;2.10;;;;;;;24.75;56.18;100389.18;89930;1264;1058084;-90
2023/06/05 18:35:28;;;;;;;5.80;2.30;;;;;;;24.77;55.51;100391.33;89908;1267;1060665;-89
2023/06/05 18:39:33;;;;;;;3.10;2.20;;;;;;;24.79;57.14;100395.84;90015;1263;1056783;-90
2023/06/05 18:47:58;;;;;;;8.30;3.40;;;;;;;24.67;61.52;100400.85;89671;1266;1057193;-88
2023/06/05 18:52:04;;;;;;;5.00;2.80;;;;;;;24.60;62.66;100402.69;89761;1266;1057884;-92
2023/06/05 18:56:10;;;;;;;3.90;2.90;;;;;;;24.53;63.85;100408.35;89711;1270;1057623;-89
2023/06/05 19:00:14;;;;;;;8.30;3.60;;;;;;;24.43;62.60;100405.30;89590;1267;1058526;-90
2023/06/05 19:04:18;;;;;;;5.40;2.70;;;;;;;24.25;63.53;100413.30;89171;1267;1257039;-88
2023/06/05 19:08:22;;;;;;;56.70;11.90;;;;;;;24.06;63.93;100411.98;89233;1269;1057979;-87
2023/06/05 19:12:25;;;;;;;23.50;5.60;;;;;;;23.97;64.36;100413.93;89223;1265;1060256;-88
2023/06/05 19:16:31;;;;;;;14.40;4.80;;;;;;;23.86;64.63;100416.30;89204;1267;1058558;-87
2023/06/05 19:20:37;;;;;;;6.00;3.30;;;;;;;23.71;66.43;100416.48;89345;1266;1057295;-89
2023/06/05 19:24:40;;;;;;;7.80;2.80;;;;;;;23.66;67.17;100420.81;89231;1267;1058057;-89
2023/06/05 19:28:43;;;;;;;3.30;2.90;;;;;;;23.57;67.92;100425.45;89589;1265;1059050;-87